Terminal Aerodrome Forecast
Issued by NWS

Home | Current Version | Previous Version | Text Only | Print | Product List | Glossary On
Versions: 1 2 3 4 5 6 7 8 9 10 11 12 13 14 15 16
754
FTUS43 KICT 151722
TAFHUT
TAF
KHUT 151722Z 1518/1618 36014G20KT P6SM SKC
     FM152300 02005KT P6SM SCT250
     FM160400 VRB03KT P6SM SCT250
     FM161300 16010KT P6SM SCT250=

USA.gov is the U.S. government's official web portal to all federal, state and local government web resources and services.